Terminal Aerodrome Forecast
Issued by NWS

Home | Current Version | Previous Version | Text Only | Print | Product List | Glossary On
Versions: 1 2 3 4 5 6 7 8 9 10 11 12 13 14 15 16 17 18 19 20
000
FTUS43 KAPX 181406 AAA
TAFMBL
TAF AMD
KMBL 181406Z 1814/1912 00000KT 3/4SM BR OVC002
     FM181600 24004KT 2SM BR OVC006
     FM181800 24006KT P6SM OVC015
     FM190000 22005KT P6SM BKN015 WS010/24035KT
     FM190100 22005KT P6SM BKN025 WS010/24035KT
     FM190900 25009KT P6SM BKN060 WS010/25035KT=

USA.gov is the U.S. government's official web portal to all federal, state and local government web resources and services.